Data for 09/13/2005

Time Sea-Level Adjusted Pressure Absolute Pressure Temperature Relative Humidity Dew Point   
(mb) (inHg) (mb) (inHg) (C) (F) (%) (C) (F)
00:05 1020 30.12 849 25.07 7.6 45.7 68 2 35.7
00:10 1020 30.12 849 25.07 7.6 45.8 67 1.9 35.5
00:15 1020 30.12 849 25.07 7.6 45.6 69 2.2 36
00:20 1020 30.12 849 25.07 6.7 44.1 74 2.4 36.3
00:25 1020 30.12 849 25.07 6.3 43.3 73 1.8 35.2
00:30 1020 30.12 849 25.07 6.7 44.1 70 1.7 35
00:35 1020 30.12 849 25.07 7 44.6 70 2 35.6
00:40 1020 30.12 849 25.07 6.8 44.2 71 1.8 35.3
00:45 1020 30.12 849 25.07 6.7 44.1 70 1.6 34.9
00:50 1020 30.12 849 25.07 6.7 44 70 1.7 35.1
00:55 1020 30.12 849 25.07 6.6 43.8 71 1.7 35.1
01:00 1020 30.12 849 25.07 6.2 43.2 71 1.4 34.6
01:05 1020 30.12 849 25.07 6 42.7 74 1.6 34.9
01:10 1020 30.12 849 25.07 6 42.8 73 1.6 34.9
01:15 1020 30.12 849 25.07 6 42.8 73 1.6 34.9
01:20 1020 30.12 849 25.07 5.7 42.2 76 1.8 35.2
01:25 1020 30.12 849 25.07 5.2 41.4 77 1.6 34.9
01:30 1020 30.12 849 25.07 4.8 40.7 77 1.2 34.2
01:35 1020 30.12 849 25.07 5 41 76 1.1 33.9
01:40 1020 30.12 849 25.07 5.1 41.2 75 1.1 34
01:45 1020 30.12 849 25.07 4.9 40.8 76 1 33.8
01:50 1020 30.12 849 25.07 5 41.1 75 1 33.8
01:55 1020 30.12 849 25.07 4.9 40.8 76 0.9 33.7
02:00 1020 30.12 849 25.07 4.7 40.4 77 1 33.7
02:05 1020 30.12 849 25.07 4.5 40.1 78 0.9 33.7
02:10 1020 30.12 849 25.07 4.3 39.7 79 0.9 33.6
02:15 1020 30.12 849 25.07 4.1 39.4 79 0.8 33.5
02:20 1020 30.12 849 25.07 4.1 39.3 79 0.8 33.4
02:25 1020 30.12 849 25.07 4 39.3 78 0.6 33
02:30 1020 30.12 849 25.07 4.2 39.6 77 0.6 33.1
02:35 1020 30.12 849 25.07 4.6 40.2 75 0.5 32.9
02:40 1020 30.12 849 25.07 4.8 40.6 73 0.4 32.7
02:45 1020 30.12 849 25.07 4.7 40.5 74 0.4 32.8
02:50 1020 30.12 849 25.07 4.7 40.4 74 0.5 32.9
02:55 1020 30.12 849 25.07 4.6 40.2 75 0.4 32.8
03:00 1019 30.09 849 25.07 4.6 40.2 74 0.4 32.7
03:05 1019 30.09 849 25.07 4.5 40.1 75 0.4 32.7
03:10 1019 30.09 849 25.07 4.4 39.9 75 0.3 32.5
03:15 1019 30.09 849 25.07 4.6 40.3 74 0.3 32.6
03:20 1019 30.09 849 25.07 4.6 40.3 74 0.3 32.6
03:25 1019 30.09 849 25.07 4.7 40.5 73 0.3 32.6
03:30 1019 30.09 849 25.07 4.9 40.7 73 0.4 32.7
03:35 1019 30.09 849 25.07 5 41.1 72 0.3 32.6
03:40 1019 30.09 849 25.07 5.2 41.3 71 0.4 32.6
03:45 1019 30.09 849 25.07 5.1 41.2 71 0.3 32.6
03:50 1019 30.09 849 25.07 5.1 41.1 71 0.2 32.4
03:55 1019 30.09 849 25.07 4.9 40.8 72 0.3 32.5
04:00 1019 30.09 849 25.07 4.7 40.4 72 0 32.1
04:05 1019 30.09 849 25.07 5 41 70 0.1 32.1
04:10 1019 30.09 849 25.07 5.1 41.3 70 0.1 32.2
04:15 1019 30.09 849 25.07 5.1 41.2 71 0.3 32.5
04:20 1019 30.09 849 25.07 4.9 40.8 72 0.2 32.4
04:25 1019 30.09 849 25.07 4.6 40.3 73 0.2 32.3
04:30 1019 30.09 849 25.07 4.4 39.8 74 0.1 32.1
04:35 1019 30.09 849 25.07 4.3 39.8 73 -0 32
04:40 1019 30.09 849 25.07 4.2 39.6 74 -0 32
04:45 1019 30.09 849 25.07 4.1 39.4 74 -0.1 31.8
04:50 1019 30.09 849 25.07 4.2 39.6 74 0.1 32.1
04:55 1019 30.09 849 25.07 4.1 39.3 73 -0.3 31.5
05:00 1019 30.09 849 25.07 3.9 39 74 -0.3 31.5
05:05 1019 30.09 848 25.04 3.6 38.4 75 -0.4 31.3
05:10 1019 30.09 848 25.04 3.5 38.3 75 -0.5 31
05:15 1019 30.09 848 25.04 3.5 38.4 75 -0.4 31.2
05:20 1019 30.09 848 25.04 3.4 38.2 75 -0.5 31.1
05:25 1019 30.09 848 25.04 3.4 38.1 76 -0.5 31.1
05:30 1019 30.09 848 25.04 3.1 37.6 77 -0.5 31
05:35 1019 30.09 848 25.04 3.1 37.5 78 -0.5 31.2
05:40 1019 30.09 848 25.04 3.4 38.1 77 -0.3 31.4
05:45 1019 30.09 848 25.04 3.4 38.1 77 -0.2 31.6
05:50 1019 30.09 848 25.04 3.4 38 77 -0.3 31.4
05:55 1019 30.09 848 25.04 3.3 37.9 77 -0.4 31.3
06:00 1019 30.09 848 25.04 3.3 37.9 77 -0.4 31.2
06:05 1019 30.09 848 25.04 3.2 37.8 77 -0.5 31.1
06:10 1019 30.09 848 25.04 3.5 38.3 75 -0.5 31.1
06:15 1019 30.09 848 25.04 3.6 38.5 75 -0.3 31.4
06:20 1019 30.09 848 25.04 3.7 38.6 76 -0.3 31.5
06:25 1019 30.09 848 25.04 3.6 38.5 75 -0.4 31.3
06:30 1019 30.09 848 25.04 3.5 38.4 75 -0.4 31.2
06:35 1019 30.09 848 25.04 3.6 38.4 75 -0.5 31.1
06:40 1019 30.09 848 25.04 3.6 38.4 74 -0.7 30.8
06:45 1019 30.09 849 25.07 3.5 38.3 75 -0.5 31
06:50 1019 30.09 848 25.04 3.1 37.6 78 -0.4 31.2
06:55 1019 30.09 849 25.07 2.6 36.7 80 -0.6 30.9
07:00 1019 30.09 849 25.07 2.1 35.8 83 -0.5 31.1
07:05 1019 30.09 849 25.07 2.1 35.7 81 -0.8 30.6
07:10 1020 30.12 849 25.07 1.9 35.3 82 -0.9 30.3
07:15 1020 30.12 849 25.07 2.3 36.1 78 -1.3 29.7
07:20 1020 30.12 849 25.07 2.9 37.3 75 -1.1 30
07:25 1020 30.12 849 25.07 3.1 37.7 76 -0.7 30.8
07:30 1020 30.12 849 25.07 3.4 38.1 74 -0.7 30.7
07:35 1020 30.12 849 25.07 3.7 38.6 74 -0.6 31
07:40 1020 30.12 849 25.07 3.7 38.6 74 -0.5 31.2
07:45 1020 30.12 849 25.07 3.5 38.4 75 -0.5 31.1
07:50 1020 30.12 849 25.07 3.7 38.7 73 -0.6 30.9
07:55 1020 30.12 849 25.07 3.8 38.9 74 -0.3 31.4
08:00 1020 30.12 849 25.07 3.9 39 74 -0.4 31.3
08:05 1020 30.12 849 25.07 3.9 39.1 74 -0.2 31.6
08:10 1020 30.12 849 25.07 4.4 39.9 72 -0.2 31.7
08:15 1020 30.12 849 25.07 4.9 40.8 70 -0.1 31.9
08:20 1019 30.09 849 25.07 5.3 41.5 69 0.2 32.3
08:25 1019 30.09 849 25.07 5.1 41.3 70 0.1 32.2
08:30 1019 30.09 849 25.07 5.2 41.4 70 0.2 32.4
08:35 1019 30.09 849 25.07 5.6 42.1 68 0.3 32.5
08:40 1019 30.09 849 25.07 6.1 43 67 0.5 32.9
08:45 1019 30.09 849 25.07 6.2 43.2 66 0.4 32.7
08:50 1019 30.09 849 25.07 6.4 43.5 65 0.3 32.5
08:55 1019 30.09 849 25.07 6.8 44.2 64 0.4 32.7
09:00 1019 30.09 849 25.07 7.5 45.4 62 0.6 33.1
09:05 1020 30.12 849 25.07 7.9 46.2 60 0.6 33.1
09:10 1020 30.12 849 25.07 8.5 47.3 58 0.8 33.4
09:15 1020 30.12 849 25.07 8.2 46.7 61 1.1 34
09:20 1020 30.12 849 25.07 8.7 47.7 57 0.7 33.3
09:25 1020 30.12 849 25.07 9.3 48.7 57 1.2 34.2
09:30 1020 30.12 849 25.07 9.5 49.1 57 1.3 34.4
09:35 1020 30.12 849 25.07 10 50 55 1.3 34.4
09:40 1020 30.12 849 25.07 10.4 50.7 55 1.9 35.4
09:45 1020 30.12 849 25.07 10.4 50.7 54 1.6 34.9
09:50 1020 30.12 849 25.07 10 49.9 57 1.8 35.3
09:55 1020 30.12 849 25.07 10.2 50.4 56 2 35.5
10:00 1020 30.12 849 25.07 10.7 51.2 55 2 35.6
10:05 1020 30.12 849 25.07 11 51.8 54 2 35.6
10:10 1020 30.12 849 25.07 10.9 51.7 54 2.1 35.8
10:15 1020 30.12 849 25.07 11.2 52.2 53 2 35.6
10:20 1020 30.12 849 25.07 11.7 53 52 2.3 36.1
10:25 1020 30.12 849 25.07 12 53.6 50 2.1 35.8
10:30 1020 30.12 849 25.07 12.3 54.2 52 2.8 37
10:35 1020 30.12 849 25.07 11.9 53.4 53 2.8 37
10:40 1020 30.12 849 25.07 11.7 53.1 53 2.4 36.3
10:45 1020 30.12 849 25.07 11.7 53.1 54 2.9 37.2
10:50 1020 30.12 849 25.07 12.1 53.7 53 2.9 37.1
10:55 1020 30.12 849 25.07 12.6 54.6 52 2.9 37.3
11:00 1020 30.12 849 25.07 12.6 54.7 51 2.8 37.1
11:05 1020 30.12 849 25.07 12.7 54.9 50 2.7 36.9
11:10 1020 30.12 849 25.07 13.1 55.6 50 3 37.3
11:15 1020 30.12 849 25.07 13.3 55.9 48 2.6 36.7
11:20 1020 30.12 849 25.07 12.7 54.9 51 2.9 37.3
11:25 1020 30.12 849 25.07 12.5 54.5 49 2.3 36.1
11:30 1020 30.12 849 25.07 13.6 56.5 46 2.3 36.2
11:35 1020 30.12 849 25.07 13.9 57.1 45 2.4 36.3
11:40 1020 30.12 849 25.07 14 57.3 46 2.6 36.7
11:45 1020 30.12 849 25.07 13.7 56.7 46 2.3 36.2
11:50 1020 30.12 849 25.07 13.1 55.5 48 2.4 36.4
11:55 1020 30.12 849 25.07 12.5 54.5 48 1.9 35.5
12:00 1020 30.12 849 25.07 13.9 57 43 1.7 35
12:05 1020 30.12 849 25.07 14.2 57.6 44 2.3 36.1
12:10 1020 30.12 849 25.07 14.4 57.9 43 2 35.7
12:15 1020 30.12 849 25.07 14.4 58 40 1 33.8
12:20 1020 30.12 849 25.07 14.6 58.3 40 1.2 34.1
12:25 1020 30.12 849 25.07 13.8 56.9 45 2 35.7
12:30 1019 30.09 849 25.07 14.2 57.5 41 1.1 33.9
12:35 1019 30.09 849 25.07 14.9 58.9 39 1.1 34
12:40 1019 30.09 849 25.07 15.3 59.5 39 1.5 34.7
12:45 1019 30.09 848 25.04 15.5 59.9 39 1.7 35.1
12:50 1019 30.09 848 25.04 16 60.8 38 1.7 35.1
12:55 1019 30.09 848 25.04 16 60.8 37 1.3 34.3
13:00 1019 30.09 848 25.04 16 60.8 37 1.5 34.7
13:05 1019 30.09 848 25.04 16.1 61 38 2.1 35.7
13:10 1019 30.09 848 25.04 16.1 60.9 37 1.6 34.9
13:15 1019 30.09 848 25.04 15.9 60.6 39 2 35.6
13:20 1019 30.09 848 25.04 15.8 60.5 38 1.6 34.8
13:25 1019 30.09 848 25.04 16.1 60.9 37 1.5 34.7
13:30 1019 30.09 848 25.04 15.9 60.7 38 1.6 34.9
13:35 1019 30.09 848 25.04 16 60.9 37 1.4 34.6
13:40 1019 30.09 848 25.04 16.5 61.7 36 1.3 34.4
13:45 1019 30.09 848 25.04 16.3 61.3 36 1.4 34.5
13:50 1019 30.09 848 25.04 16.1 60.9 36 1.2 34.2
13:55 1019 30.09 848 25.04 16.4 61.5 35 0.8 33.5
14:00 1019 30.09 848 25.04 16.7 62.1 35 1.4 34.6
14:05 1019 30.09 848 25.04 16.1 61 35 0.8 33.4
14:10 1019 30.09 848 25.04 16.1 61 35 0.7 33.3
14:15 1019 30.09 848 25.04 16.6 61.8 35 1 33.8
14:20 1019 30.09 848 25.04 17.5 63.5 33 1.2 34.2
14:25 1019 30.09 848 25.04 17.2 62.9 35 1.7 35
14:30 1019 30.09 848 25.04 17.3 63.1 33 1 33.7
14:35 1019 30.09 848 25.04 17.2 63 34 1.5 34.6
14:40 1019 30.09 848 25.04 17.1 62.7 34 1.2 34.1
14:45 1019 30.09 848 25.04 17.1 62.7 34 1.2 34.1
14:50 1019 30.09 848 25.04 17.4 63.3 33 1 33.8
14:55 1019 30.09 848 25.04 17.2 63 34 1.3 34.4
15:00 1018 30.06 848 25.04 16.8 62.2 33 0.4 32.8
15:05 1018 30.06 848 25.04 17.4 63.3 32 0.6 33.1
15:10 1018 30.06 848 25.04 17.6 63.6 32 0.7 33.3
15:15 1018 30.06 848 25.04 17.7 63.9 30 0 32.1
15:20 1018 30.06 848 25.04 16.5 61.7 34 0.7 33.3
15:25 1018 30.06 848 25.04 16.5 61.6 33 0.2 32.4
15:30 1018 30.06 848 25.04 17 62.5 31 0 32.1
15:35 1018 30.06 847 25.01 17 62.5 33 0.5 32.9
15:40 1018 30.06 847 25.01 17 62.6 32 0.3 32.5
15:45 1018 30.06 847 25.01 17.6 63.7 31 0.3 32.5
15:50 1018 30.06 847 25.01 17.1 62.7 32 0.4 32.7
15:55 1018 30.06 847 25.01 17 62.5 32 0.3 32.5
16:00 1018 30.06 847 25.01 16.8 62.2 33 0.5 32.8
16:05 1018 30.06 847 25.01 16.8 62.2 33 0.6 33
16:10 1018 30.06 847 25.01 17.5 63.4 31 0.2 32.3
16:15 1018 30.06 847 25.01 17.3 63.1 31 0.1 32.1
16:20 1018 30.06 847 25.01 17.7 63.8 30 -0.1 31.9
16:25 1018 30.06 847 25.01 17.7 63.8 31 0.4 32.7
16:30 1018 30.06 847 25.01 17.1 62.8 31 0.2 32.3
16:35 1018 30.06 847 25.01 17.1 62.9 31 0.1 32.1
16:40 1018 30.06 847 25.01 17 62.5 33 0.8 33.4
16:45 1018 30.06 847 25.01 16.8 62.2 33 0.4 32.8
16:50 1018 30.06 847 25.01 16.9 62.5 32 0.1 32.2
16:55 1018 30.06 847 25.01 17.2 62.9 30 -0.3 31.5
17:00 1018 30.06 847 25.01 17.2 63 30 -0.4 31.2
17:05 1018 30.06 847 25.01 17.4 63.3 30 -0.2 31.6
17:10 1018 30.06 847 25.01 17.6 63.7 30 -0.3 31.5
17:15 1018 30.06 847 25.01 17.6 63.6 29 -0.3 31.4
17:20 1018 30.06 847 25.01 17.5 63.5 29 -0.4 31.3
17:25 1018 30.06 847 25.01 17.3 63.1 30 -0.3 31.4
17:30 1018 30.06 847 25.01 16.5 61.7 32 -0 31.9
17:35 1018 30.06 847 25.01 16.3 61.3 31 -0.6 30.9
17:40 1018 30.06 847 25.01 16.2 61.1 32 -0.6 31
17:45 1018 30.06 847 25.01 16.2 61.2 32 -0.4 31.3
17:50 1018 30.06 847 25.01 16.6 61.9 30 -1 30.3
17:55 1018 30.06 847 25.01 17.1 62.8 29 -0.7 30.7
18:00 1018 30.06 847 25.01 16.7 62 31 -0.5 31.2
18:05 1018 30.06 847 25.01 16.7 62 31 -0.6 30.9
18:10 1018 30.06 847 25.01 16.6 61.9 33 0.2 32.4
18:15 1018 30.06 847 25.01 16.3 61.4 32 -0.4 31.2
18:20 1018 30.06 847 25.01 16 60.8 33 -0.2 31.6
18:25 1018 30.06 847 25.01 15.9 60.6 33 -0.1 31.9
18:30 1018 30.06 847 25.01 15.8 60.4 33 -0.3 31.5
18:35 1018 30.06 847 25.01 15.6 60.1 33 -0.5 31.2
18:40 1018 30.06 847 25.01 15.6 60.1 34 0 32
18:45 1018 30.06 847 25.01 15.6 60 34 0 32
18:50 1018 30.06 847 25.01 15.5 59.9 35 0.4 32.7
18:55 1018 30.06 847 25.01 15.4 59.6 36 0.6 33
19:00 1018 30.06 847 25.01 15.2 59.4 37 0.7 33.2
19:05 1018 30.06 847 25.01 15.1 59.2 37 0.5 32.9
19:10 1018 30.06 847 25.01 15 59 38 0.7 33.3
19:15 1018 30.06 847 25.01 14.9 58.9 38 0.9 33.6
19:20 1018 30.06 847 25.01 14.8 58.6 39 1 33.7
19:25 1018 30.06 847 25.01 14.6 58.3 39 0.9 33.7
19:30 1018 30.06 847 25.01 14.5 58.1 41 1.4 34.5
19:35 1018 30.06 847 25.01 14.4 57.9 40 1.1 34.1
19:40 1018 30.06 847 25.01 14.2 57.6 41 1.1 33.9
19:45 1018 30.06 847 25.01 14.1 57.3 42 1.3 34.3
19:50 1018 30.06 847 25.01 13.8 56.9 42 1.2 34.2
19:55 1018 30.06 847 25.01 13.7 56.7 43 1.4 34.5
20:00 1018 30.06 847 25.01 13.6 56.5 43 1.4 34.6
20:05 1018 30.06 847 25.01 13.3 56 44 1.5 34.6
20:10 1018 30.06 847 25.01 13.2 55.7 45 1.5 34.6
20:15 1018 30.06 847 25.01 12.9 55.2 45 1.4 34.4
20:20 1018 30.06 847 25.01 12.7 54.8 47 1.8 35.2
20:25 1018 30.06 847 25.01 12 53.6 51 2.3 36.1
20:30 1018 30.06 847 25.01 10.7 51.3 54 1.8 35.2
20:35 1018 30.06 847 25.01 10.5 50.8 54 1.6 34.9
20:40 1018 30.06 847 25.01 10.8 51.4 52 1.3 34.3
20:45 1018 30.06 847 25.01 11 51.7 50 1.1 33.9
20:50 1018 30.06 847 25.01 10.9 51.6 51 1.1 34
20:55 1018 30.06 847 25.01 10.9 51.6 50 1 33.8
21:00 1018 30.06 848 25.04 10.5 50.9 51 0.8 33.4
21:05 1018 30.06 848 25.04 10.4 50.7 51 0.6 33.1
21:10 1018 30.06 848 25.04 10.6 51.1 50 0.6 33
21:15 1019 30.09 848 25.04 10.7 51.3 49 0.5 32.9
21:20 1019 30.09 848 25.04 10.7 51.3 49 0.4 32.7
21:25 1019 30.09 848 25.04 10.9 51.6 47 0 32.1
21:30 1019 30.09 848 25.04 11 51.8 47 0.3 32.5
21:35 1019 30.09 848 25.04 11.1 52.1 46 -0.1 31.9
21:40 1019 30.09 848 25.04 11.1 52 46 -0 32
21:45 1019 30.09 848 25.04 10.9 51.6 46 -0.3 31.4
21:50 1019 30.09 848 25.04 10.8 51.4 47 -0.1 31.8
21:55 1019 30.09 848 25.04 10.6 51.1 46 -0.3 31.4
22:00 1019 30.09 848 25.04 10.5 50.9 47 -0.3 31.4
22:05 1019 30.09 848 25.04 10.4 50.6 47 -0.4 31.2
22:10 1019 30.09 848 25.04 10.2 50.4 48 -0.3 31.5
22:15 1019 30.09 848 25.04 10.2 50.3 47 -0.5 31.2
22:20 1019 30.09 848 25.04 10.2 50.3 48 -0.2 31.6
22:25 1019 30.09 848 25.04 10 49.9 49 -0.2 31.6
22:30 1019 30.09 848 25.04 9.6 49.2 50 -0.2 31.7
22:35 1019 30.09 848 25.04 9.1 48.4 52 -0.1 31.8
22:40 1019 30.09 848 25.04 8.6 47.4 53 -0.4 31.2
22:45 1019 30.09 848 25.04 8.2 46.8 55 -0.3 31.5
22:50 1019 30.09 848 25.04 7.8 46.1 56 -0.5 31.2
22:55 1019 30.09 848 25.04 8 46.3 55 -0.5 31.1
23:00 1019 30.09 848 25.04 8.1 46.5 55 -0.4 31.2
23:05 1019 30.09 848 25.04 8.1 46.5 55 -0.4 31.2
23:10 1019 30.09 848 25.04 7.9 46.2 56 -0.4 31.3
23:15 1019 30.09 848 25.04 7.7 45.8 56 -0.5 31.1
23:20 1019 30.09 848 25.04 7.6 45.7 56 -0.6 30.8
23:25 1019 30.09 848 25.04 7.7 45.8 56 -0.6 30.9
23:30 1019 30.09 848 25.04 7.7 45.8 56 -0.5 31
23:35 1019 30.09 848 25.04 7.7 45.8 56 -0.5 31.1
23:40 1019 30.09 848 25.04 7.5 45.5 57 -0.4 31.3
23:45 1019 30.09 848 25.04 7.3 45.2 58 -0.4 31.3
23:50 1019 30.09 848 25.04 7.4 45.3 58 -0.4 31.2
23:55 1019 30.09 848 25.04 7.4 45.4 57 -0.6 31
24:00 1019 30.09 848 25.04 7.7 45.9 55 -0.7 30.7